Time;durP1;ratioP1;P1;durP2;ratioP2;P2;SDS_P1;SDS_P2;PMS_P1;PMS_P2;Temp;Humidity;BMP_temperature;BMP_pressure;BME280_temperature;BME280_humidity;BME280_pressure;Samples;Min_cycle;Max_cycle;Signal;HPM_P1;HPM_P2
2024/04/01 00:00:58;;;;;;;40.13;9.43;;;15.60;1.00;;;;;;4824420;29;20041;-74
2024/04/01 00:03:24;;;;;;;47.42;9.30;;;15.50;1.00;;;;;;4824590;29;20046;-74
2024/04/01 00:05:53;;;;;;;47.80;8.65;;;15.60;1.00;;;;;;4837083;29;20382;-74
2024/04/01 00:08:20;;;;;;;43.65;9.68;;;15.60;1.00;;;;;;4842653;29;20038;-74
2024/04/01 00:10:50;;;;;;;49.55;8.90;;;15.60;1.00;;;;;;4842791;29;20045;-74
2024/04/01 00:13:16;;;;;;;42.42;9.30;;;15.50;1.00;;;;;;4824522;29;20038;-74
2024/04/01 00:15:43;;;;;;;45.47;8.32;;;15.50;1.00;;;;;;4856508;29;20096;-74
2024/04/01 00:18:09;;;;;;;53.00;9.90;;;15.50;1.00;;;;;;4860768;29;20042;-74
2024/04/01 00:20:34;;;;;;;44.53;9.45;;;15.50;1.00;;;;;;4858420;29;20079;-74
2024/04/01 00:23:00;;;;;;;48.72;8.90;;;15.40;1.00;;;;;;4860908;29;20045;-74
2024/04/01 00:25:25;;;;;;;46.15;8.50;;;15.40;1.00;;;;;;4824051;29;20041;-75
2024/04/01 00:27:51;;;;;;;47.13;9.70;;;15.30;1.00;;;;;;4824491;29;20034;-74
2024/04/01 00:30:17;;;;;;;42.65;9.93;;;15.20;1.00;;;;;;4808412;29;20062;-74
2024/04/01 00:32:43;;;;;;;54.05;9.13;;;15.10;1.00;;;;;;4790691;29;20031;-74
2024/04/01 00:35:09;;;;;;;48.83;10.35;;;15.00;1.00;;;;;;4769736;30;20051;-74
2024/04/01 00:37:35;;;;;;;46.33;8.65;;;15.00;1.00;;;;;;4751946;30;20497;-74
2024/04/01 00:40:01;;;;;;;46.78;10.10;;;15.00;1.00;;;;;;4738375;30;20103;-74
2024/04/01 00:42:27;;;;;;;37.97;9.05;;;15.00;1.00;;;;;;4739550;30;20573;-74
2024/04/01 00:44:54;;;;;;;45.20;9.00;;;14.90;8.80;;;;;;4769934;30;20144;-74
2024/04/01 00:47:19;;;;;;;43.40;9.00;;;14.90;20.60;;;;;;4765435;30;20091;-74
2024/04/01 00:49:45;;;;;;;42.60;8.57;;;14.90;30.80;;;;;;4769928;30;20524;-74
2024/04/01 00:52:13;;;;;;;44.13;9.88;;;14.80;48.10;;;;;;4769798;30;20162;-74
2024/04/01 00:54:39;;;;;;;53.40;12.30;;;14.80;64.60;;;;;;4787434;29;20116;-74
2024/04/01 00:57:06;;;;;;;47.40;9.07;;;14.70;84.90;;;;;;4833268;29;20501;-74
2024/04/01 00:59:33;;;;;;;50.63;9.80;;;14.60;99.90;;;;;;4842099;29;20394;-74
2024/04/01 01:01:59;;;;;;;40.15;9.35;;;14.50;99.90;;;;;;4805335;29;20050;-74
2024/04/01 01:04:25;;;;;;;37.75;8.05;;;14.40;99.90;;;;;;4851755;29;20238;-74
2024/04/01 01:06:51;;;;;;;47.67;10.20;;;14.30;99.90;;;;;;4857658;29;20041;-74
2024/04/01 01:09:17;;;;;;;44.85;8.35;;;14.30;99.90;;;;;;4845494;29;20049;-74
2024/04/01 01:11:43;;;;;;;36.88;8.80;;;14.30;99.90;;;;;;4841751;29;20045;-74
2024/04/01 01:14:09;;;;;;;49.97;8.98;;;14.30;99.90;;;;;;4841555;29;20507;-74
2024/04/01 01:16:36;;;;;;;47.55;8.48;;;14.20;99.90;;;;;;4794966;29;20080;-74
2024/04/01 01:19:03;;;;;;;37.40;8.13;;;14.20;99.90;;;;;;4801601;29;20054;-74
2024/04/01 01:21:29;;;;;;;35.78;7.70;;;14.20;99.90;;;;;;4852464;29;20074;-74
2024/04/01 01:23:54;;;;;;;42.65;8.85;;;14.20;99.90;;;;;;4823110;29;20066;-74
2024/04/01 01:26:20;;;;;;;45.55;10.05;;;14.30;99.90;;;;;;4823504;29;20510;-74
2024/04/01 01:28:47;;;;;;;49.42;11.88;;;14.30;99.90;;;;;;4822997;29;20602;-74
2024/04/01 01:31:13;;;;;;;40.00;8.15;;;14.30;99.90;;;;;;4820427;29;20081;-74
2024/04/01 01:33:39;;;;;;;40.92;9.70;;;14.30;99.90;;;;;;4823078;29;20030;-74
2024/04/01 01:36:05;;;;;;;42.35;8.43;;;14.40;99.90;;;;;;4822851;29;20049;-74
2024/04/01 01:38:31;;;;;;;37.85;8.00;;;14.50;99.90;;;;;;4800447;29;20046;-74
2024/04/01 01:40:58;;;;;;;42.33;8.48;;;14.50;99.90;;;;;;4790720;29;20035;-74
2024/04/01 01:43:24;;;;;;;40.03;8.70;;;14.50;99.90;;;;;;4787037;30;20042;-74
2024/04/01 01:45:49;;;;;;;34.95;8.40;;;14.50;99.90;;;;;;4804599;29;20039;-74
2024/04/01 01:48:15;;;;;;;37.15;8.05;;;14.60;99.90;;;;;;4818104;29;20043;-74
2024/04/01 01:50:41;;;;;;;38.05;6.70;;;14.60;99.90;;;;;;4823037;29;20066;-74
2024/04/01 01:53:09;;;;;;;49.42;7.85;;;14.60;99.90;;;;;;4822664;29;20087;-74
2024/04/01 01:55:35;;;;;;;38.47;7.63;;;14.60;99.90;;;;;;4808784;29;20047;-74
2024/04/01 01:58:01;;;;;;;39.28;7.97;;;14.50;99.90;;;;;;4822900;29;20042;-74
2024/04/01 02:00:27;;;;;;;36.97;7.68;;;14.60;99.90;;;;;;4840745;29;20557;-75
2024/04/01 02:02:53;;;;;;;41.58;8.30;;;14.50;99.90;;;;;;4859097;29;20073;-74
2024/04/01 02:05:19;;;;;;;41.08;8.10;;;14.50;99.90;;;;;;4856686;29;20077;-74
2024/04/01 02:07:44;;;;;;;37.85;7.70;;;14.40;99.90;;;;;;4812812;29;20159;-74
2024/04/01 02:10:13;;;;;;;42.25;7.68;;;14.40;99.90;;;;;;4804186;29;20049;-74
2024/04/01 02:12:39;;;;;;;41.13;7.30;;;14.30;1.00;;;;;;4804621;29;20075;-74
2024/04/01 02:15:06;;;;;;;36.72;7.82;;;14.40;1.00;;;;;;4804058;29;20095;-74
2024/04/01 02:17:32;;;;;;;36.28;8.40;;;14.30;1.00;;;;;;4801861;29;20055;-74
2024/04/01 02:19:58;;;;;;;37.58;8.23;;;14.30;1.00;;;;;;4804022;29;20491;-74
2024/04/01 02:22:23;;;;;;;37.28;8.18;;;14.30;1.00;;;;;;4804075;29;20046;-74
2024/04/01 02:24:49;;;;;;;36.78;8.05;;;14.30;1.00;;;;;;4803918;29;20575;-74
2024/04/01 02:27:15;;;;;;;32.58;7.53;;;14.20;1.00;;;;;;4804354;29;20514;-74
2024/04/01 02:29:40;;;;;;;39.80;7.03;;;14.30;1.00;;;;;;4758607;30;20067;-74
2024/04/01 02:32:06;;;;;;;31.15;7.03;;;14.20;1.00;;;;;;4781700;30;20050;-74
2024/04/01 02:34:32;;;;;;;35.17;8.20;;;14.20;1.00;;;;;;4803823;29;20400;-74
2024/04/01 02:36:57;;;;;;;39.67;7.35;;;14.20;1.00;;;;;;4785853;30;20082;-74
2024/04/01 02:39:23;;;;;;;36.90;7.20;;;14.20;4.50;;;;;;4822085;29;20035;-74
2024/04/01 02:41:51;;;;;;;37.92;8.43;;;14.10;29.10;;;;;;4803817;29;20403;-74
2024/04/01 02:44:17;;;;;;;41.30;7.50;;;14.10;60.30;;;;;;4822295;29;20045;-74
2024/04/01 02:46:44;;;;;;;37.38;7.53;;;14.10;91.60;;;;;;4854165;29;20038;-74
2024/04/01 02:49:11;;;;;;;34.22;6.50;;;14.10;99.90;;;;;;4844632;29;20442;-74
2024/04/01 02:51:37;;;;;;;40.10;7.13;;;14.10;99.90;;;;;;4858446;29;20578;-74
2024/04/01 02:54:03;;;;;;;37.55;7.07;;;14.00;99.90;;;;;;4886805;29;20528;-74
2024/04/01 02:56:29;;;;;;;41.30;6.97;;;14.00;99.90;;;;;;4881579;29;20041;-74
2024/04/01 02:58:55;;;;;;;36.13;7.22;;;13.90;99.90;;;;;;4877493;29;20049;-75
2024/04/01 03:01:20;;;;;;;31.48;7.10;;;13.90;99.90;;;;;;4878725;29;20124;-74
2024/04/01 03:03:46;;;;;;;39.08;7.35;;;13.80;99.90;;;;;;4880531;29;20071;-74
2024/04/01 03:06:14;;;;;;;31.98;6.65;;;13.80;99.90;;;;;;4868197;29;20093;-74
2024/04/01 03:08:41;;;;;;;41.10;7.53;;;13.80;99.90;;;;;;4869999;29;20486;-74
2024/04/01 03:11:06;;;;;;;41.22;7.05;;;13.70;99.90;;;;;;4861811;29;20034;-74
2024/04/01 03:13:32;;;;;;;36.38;7.07;;;13.70;99.90;;;;;;4862377;29;20041;-74
2024/04/01 03:15:58;;;;;;;35.42;6.20;;;13.60;1.00;;;;;;4862235;29;20113;-74
2024/04/01 03:18:24;;;;;;;36.80;7.13;;;13.60;1.00;;;;;;4862102;29;20122;-74
2024/04/01 03:20:52;;;;;;;37.90;6.97;;;13.60;1.00;;;;;;4876234;29;20037;-75
2024/04/01 03:23:18;;;;;;;34.13;7.40;;;13.60;1.00;;;;;;4894855;29;20049;-74
2024/04/01 03:25:50;;;;;;;32.47;6.80;;;13.50;1.00;;;;;;4899324;29;20041;-74
2024/04/01 03:28:16;;;;;;;36.03;7.03;;;13.40;20.30;;;;;;4846745;29;20045;-74
2024/04/01 03:30:41;;;;;;;41.15;8.43;;;13.50;56.10;;;;;;4843114;29;20052;-74
2024/04/01 03:33:07;;;;;;;31.13;6.95;;;13.40;69.70;;;;;;4876646;29;20410;-74
2024/04/01 03:35:32;;;;;;;38.97;7.00;;;13.40;96.50;;;;;;4895683;29;20571;-74
2024/04/01 03:37:58;;;;;;;35.08;6.80;;;13.40;99.90;;;;;;4929788;29;20043;-74
2024/04/01 03:40:25;;;;;;;41.75;8.23;;;13.30;99.90;;;;;;4921885;29;20051;-74
2024/04/01 03:42:50;;;;;;;39.22;7.85;;;13.20;99.90;;;;;;4918082;29;20040;-74
2024/04/01 03:45:16;;;;;;;32.67;7.90;;;13.20;99.90;;;;;;4917730;29;20036;-74
2024/04/01 03:47:41;;;;;;;36.35;7.57;;;13.10;99.90;;;;;;4885460;29;20040;-74
2024/04/01 03:50:11;;;;;;;42.20;6.97;;;13.00;99.90;;;;;;4910300;29;20059;-74
2024/04/01 03:52:37;;;;;;;34.58;7.28;;;13.00;1.00;;;;;;4917644;29;20032;-74
2024/04/01 03:55:03;;;;;;;47.03;9.20;;;12.90;1.00;;;;;;4898640;29;20044;-74
2024/04/01 03:57:28;;;;;;;42.95;8.25;;;12.80;1.00;;;;;;4898612;29;20509;-74
2024/04/01 03:59:54;;;;;;;44.63;10.70;;;12.70;99.90;;;;;;4893977;29;20440;-74
2024/04/01 04:02:19;;;;;;;42.25;9.38;;;12.50;99.90;;;;;;4898714;29;20044;-74
2024/04/01 04:04:45;;;;;;;42.58;9.18;;;12.40;99.90;;;;;;4912797;29;20036;-74
2024/04/01 04:07:10;;;;;;;40.15;9.38;;;12.30;1.00;;;;;;4879576;29;20033;-74
2024/04/01 04:09:36;;;;;;;38.60;7.30;;;12.30;1.00;;;;;;4879835;29;20474;-74
2024/04/01 04:12:03;;;;;;;38.20;8.35;;;12.30;1.00;;;;;;4879297;29;20057;-74
2024/04/01 04:14:29;;;;;;;36.72;8.90;;;12.30;1.00;;;;;;4842406;29;20402;-74
2024/04/01 04:16:54;;;;;;;42.60;8.43;;;12.30;1.00;;;;;;4842500;29;20049;-74
2024/04/01 04:19:20;;;;;;;37.97;7.70;;;12.30;1.00;;;;;;4856705;29;20120;-74
2024/04/01 04:21:46;;;;;;;40.10;8.73;;;12.40;1.00;;;;;;4856471;29;20044;-74
2024/04/01 04:24:14;;;;;;;41.05;8.82;;;12.40;1.00;;;;;;4860963;29;20426;-74
2024/04/01 04:26:43;;;;;;;37.00;7.15;;;12.40;1.00;;;;;;4860859;29;20053;-74
2024/04/01 04:29:09;;;;;;;38.22;7.32;;;12.40;1.00;;;;;;4860631;29;20132;-74
2024/04/01 04:31:34;;;;;;;38.70;7.10;;;12.40;1.00;;;;;;4860642;29;20202;-74
2024/04/01 04:34:00;;;;;;;37.08;7.65;;;12.50;1.00;;;;;;4860608;29;20092;-74
2024/04/01 04:36:26;;;;;;;31.05;7.38;;;12.60;1.00;;;;;;4875053;29;20120;-74
2024/04/01 04:38:53;;;;;;;37.80;6.93;;;12.50;99.90;;;;;;4864425;29;20186;-74
2024/04/01 04:41:20;;;;;;;35.08;7.10;;;12.50;99.90;;;;;;4842251;29;20038;-74
2024/04/01 04:43:46;;;;;;;34.85;6.95;;;12.60;99.90;;;;;;4842133;29;20129;-74
2024/04/01 04:46:12;;;;;;;35.33;7.22;;;12.60;99.90;;;;;;4875215;29;20085;-74
2024/04/01 04:48:44;;;;;;;39.53;7.90;;;12.80;99.90;;;;;;4878974;29;20041;-74
2024/04/01 04:51:11;;;;;;;43.10;7.60;;;12.80;99.90;;;;;;4878832;29;20037;-74
2024/04/01 04:53:38;;;;;;;34.55;7.70;;;12.90;99.90;;;;;;4878978;29;20037;-74
2024/04/01 04:56:05;;;;;;;38.05;7.45;;;12.90;91.80;;;;;;4878985;29;20141;-74
2024/04/01 04:58:33;;;;;;;37.83;7.95;;;12.80;92.10;;;;;;4863201;29;20045;-74
2024/04/01 05:01:05;;;;;;;37.78;7.10;;;13.20;39.70;;;;;;4875735;29;20037;-74
2024/04/01 05:03:34;;;;;;;36.97;7.47;;;13.20;1.00;;;;;;4860589;29;20585;-74
2024/04/01 05:06:01;;;;;;;44.15;8.20;;;13.20;1.00;;;;;;4860172;29;20048;-74
2024/04/01 05:08:27;;;;;;;33.13;8.48;;;13.70;99.90;;;;;;4877582;29;20176;-74
2024/04/01 05:10:52;;;;;;;41.38;8.15;;;14.00;99.90;;;;;;4878695;29;20112;-74
2024/04/01 05:13:18;;;;;;;26.85;6.72;;;14.30;99.90;;;;;;4878774;29;20041;-74
2024/04/01 05:15:43;;;;;;;31.90;6.97;;;15.00;1.00;;;;;;4883236;29;20040;-74
2024/04/01 05:18:09;;;;;;;39.38;8.43;;;15.20;1.00;;;;;;4873747;29;20033;-75
2024/04/01 05:20:36;;;;;;;32.00;6.88;;;14.90;99.90;;;;;;4841355;29;20053;-74
2024/04/01 05:23:02;;;;;;;31.60;7.75;;;15.10;99.90;;;;;;4822648;29;20038;-74
2024/04/01 05:25:29;;;;;;;37.75;8.70;;;14.70;99.90;;;;;;4823016;29;20045;-74
2024/04/01 05:27:55;;;;;;;43.17;9.20;;;14.40;99.90;;;;;;4823551;29;20472;-74
2024/04/01 05:30:23;;;;;;;31.95;7.60;;;15.00;99.90;;;;;;4840891;29;20062;-74
2024/04/01 05:32:49;;;;;;;36.13;7.15;;;15.00;99.90;;;;;;4856668;29;20090;-74
2024/04/01 05:35:19;;;;;;;33.72;6.82;;;14.30;99.90;;;;;;4844687;29;20092;-74
2024/04/01 05:37:45;;;;;;;34.67;7.13;;;14.20;1.00;;;;;;4878038;29;20045;-74
2024/04/01 05:40:12;;;;;;;33.53;7.82;;;14.10;1.00;;;;;;4878200;29;20046;-74
2024/04/01 05:42:40;;;;;;;37.05;7.43;;;14.20;1.00;;;;;;4878119;29;20517;-74
2024/04/01 05:45:06;;;;;;;32.28;6.57;;;14.30;1.00;;;;;;4877873;29;20477;-74
2024/04/01 05:47:31;;;;;;;31.17;6.85;;;15.90;99.90;;;;;;4877721;29;20040;-74
2024/04/01 05:49:57;;;;;;;32.00;7.47;;;17.00;99.90;;;;;;4893121;29;20043;-74
2024/04/01 05:52:22;;;;;;;35.08;7.55;;;17.10;99.90;;;;;;4896560;29;20036;-74
2024/04/01 05:54:48;;;;;;;30.10;6.88;;;16.20;99.90;;;;;;4881307;29;20370;-74
2024/04/01 05:57:13;;;;;;;38.85;7.85;;;15.30;99.90;;;;;;4866298;29;20394;-74
2024/04/01 05:59:39;;;;;;;35.67;6.90;;;14.60;99.90;;;;;;4859571;29;20533;-74
2024/04/01 06:02:05;;;;;;;36.67;7.40;;;14.30;99.90;;;;;;4892565;29;20079;-74
2024/04/01 06:04:31;;;;;;;40.35;8.00;;;14.10;1.00;;;;;;4881609;29;20037;-74
2024/04/01 06:06:57;;;;;;;28.00;6.15;;;14.40;1.00;;;;;;4896315;29;20044;-74
2024/04/01 06:09:22;;;;;;;34.17;7.07;;;14.50;1.00;;;;;;4896678;29;20091;-73
2024/04/01 06:11:48;;;;;;;34.67;7.05;;;14.50;1.00;;;;;;4896484;29;20119;-73
2024/04/01 06:14:13;;;;;;;37.67;7.90;;;14.40;1.00;;;;;;4896772;29;20077;-74
2024/04/01 06:16:39;;;;;;;32.95;7.53;;;14.30;1.00;;;;;;4909929;29;20405;-73
2024/04/01 06:19:05;;;;;;;32.03;6.97;;;14.30;26.10;;;;;;4909794;29;20036;-74
2024/04/01 06:21:31;;;;;;;35.28;6.68;;;14.30;60.50;;;;;;4929261;29;20036;-73
2024/04/01 06:24:00;;;;;;;30.30;6.57;;;14.40;69.40;;;;;;4934446;29;20054;-74
2024/04/01 06:26:27;;;;;;;40.15;8.23;;;14.50;98.40;;;;;;4915081;29;20396;-73
2024/04/01 06:28:53;;;;;;;35.78;7.45;;;14.30;99.90;;;;;;4915143;29;20485;-74
2024/04/01 06:31:19;;;;;;;34.88;7.82;;;14.10;99.90;;;;;;4914830;29;20052;-74
2024/04/01 06:33:45;;;;;;;43.60;8.90;;;14.00;1.00;;;;;;4886188;29;20409;-73
2024/04/01 06:36:10;;;;;;;38.72;8.15;;;14.00;10.90;;;;;;4876313;29;20041;-74
2024/04/01 06:38:37;;;;;;;29.92;6.90;;;13.80;99.90;;;;;;4881912;29;20041;-74
2024/04/01 06:41:02;;;;;;;35.00;7.68;;;13.80;99.90;;;;;;4844275;29;20102;-74
2024/04/01 06:43:29;;;;;;;34.15;7.13;;;13.70;99.90;;;;;;4864701;29;20112;-74
2024/04/01 06:45:59;;;;;;;30.20;7.10;;;13.80;99.90;;;;;;4881391;29;20429;-74
2024/04/01 06:48:25;;;;;;;33.42;6.80;;;13.80;99.90;;;;;;4859125;29;20049;-74
2024/04/01 06:50:51;;;;;;;32.97;7.65;;;14.00;99.90;;;;;;4881246;29;20044;-74
2024/04/01 06:53:17;;;;;;;29.13;6.82;;;14.20;99.90;;;;;;4881237;29;20057;-74
2024/04/01 06:55:48;;;;;;;33.38;7.18;;;14.20;99.90;;;;;;4881240;29;20044;-74
2024/04/01 06:58:14;;;;;;;27.90;8.43;;;14.30;99.90;;;;;;4881205;29;20051;-75
2024/04/01 07:00:40;;;;;;;38.83;6.90;;;14.50;99.90;;;;;;4881112;29;20171;-75
2024/04/01 07:03:06;;;;;;;32.00;6.93;;;14.20;99.90;;;;;;4899952;29;20169;-75
2024/04/01 07:05:33;;;;;;;29.02;6.07;;;14.20;99.90;;;;;;4899688;29;20101;-75
2024/04/01 07:07:59;;;;;;;32.90;6.90;;;14.30;99.90;;;;;;4884088;29;20416;-75
2024/04/01 07:10:26;;;;;;;29.15;5.88;;;14.30;99.90;;;;;;4881116;29;20509;-75
2024/04/01 07:12:52;;;;;;;37.70;7.75;;;14.30;99.90;;;;;;4912550;29;20127;-75
2024/04/01 07:15:17;;;;;;;35.67;5.80;;;14.10;99.90;;;;;;4969702;28;20121;-75
2024/04/01 07:17:43;;;;;;;33.78;6.05;;;14.20;99.90;;;;;;4918281;29;20484;-75
2024/04/01 07:20:12;;;;;;;41.53;8.10;;;14.30;99.90;;;;;;4948980;29;20495;-75
2024/04/01 07:22:38;;;;;;;33.53;6.57;;;14.40;99.90;;;;;;4937473;29;20091;-74
2024/04/01 07:25:04;;;;;;;32.47;7.57;;;14.70;99.90;;;;;;4937403;29;20028;-75
2024/04/01 07:27:34;;;;;;;33.58;6.70;;;14.80;30.60;;;;;;4918361;29;20556;-75
2024/04/01 07:30:00;;;;;;;33.90;7.10;;;15.30;1.00;;;;;;4917442;29;20052;-75
2024/04/01 07:32:26;;;;;;;34.38;7.32;;;15.50;99.90;;;;;;4918160;29;20104;-75
2024/04/01 07:34:51;;;;;;;37.75;7.47;;;15.90;99.90;;;;;;4883969;29;20049;-75
2024/04/01 07:37:17;;;;;;;31.42;6.30;;;15.70;99.90;;;;;;4861669;29;20038;-75
2024/04/01 07:39:42;;;;;;;32.15;6.93;;;16.10;92.90;;;;;;4861654;29;20494;-75
2024/04/01 07:42:08;;;;;;;33.33;6.53;;;16.10;2.20;;;;;;4861798;29;20121;-75
2024/04/01 07:44:33;;;;;;;25.50;6.47;;;16.20;1.00;;;;;;4843164;29;20525;-75
2024/04/01 07:46:59;;;;;;;36.53;7.25;;;16.20;1.00;;;;;;4842242;29;20082;-75
2024/04/01 07:49:25;;;;;;;29.67;7.80;;;16.50;1.00;;;;;;4842721;29;20058;-75
2024/04/01 07:51:50;;;;;;;32.75;8.02;;;16.00;1.00;;;;;;4843182;29;20065;-75
2024/04/01 07:54:17;;;;;;;36.53;8.45;;;16.20;1.00;;;;;;4817278;29;20559;-75
2024/04/01 07:56:43;;;;;;;37.65;7.75;;;16.30;1.00;;;;;;4842849;29;20038;-75
2024/04/01 07:59:09;;;;;;;33.25;6.47;;;16.50;1.00;;;;;;4856877;29;20133;-75
2024/04/01 08:01:34;;;;;;;29.65;7.22;;;16.40;99.90;;;;;;4861079;29;20077;-75
2024/04/01 08:04:00;;;;;;;32.63;7.10;;;17.10;99.90;;;;;;4861585;29;20046;-75
2024/04/01 08:06:25;;;;;;;35.33;6.32;;;16.90;99.90;;;;;;4861424;29;20095;-75
2024/04/01 08:08:51;;;;;;;30.65;7.15;;;17.90;99.90;;;;;;4860825;29;20490;-75
2024/04/01 08:11:16;;;;;;;30.88;6.07;;;18.00;99.90;;;;;;4852380;29;20502;-77
2024/04/01 08:13:42;;;;;;;33.13;7.25;;;17.00;99.90;;;;;;4825365;29;20487;-77
2024/04/01 08:16:08;;;;;;;41.83;6.93;;;16.90;99.90;;;;;;4829206;29;20476;-76
2024/04/01 08:18:35;;;;;;;26.38;6.20;;;16.40;99.90;;;;;;4828951;29;20263;-76
2024/04/01 08:21:00;;;;;;;35.25;6.82;;;16.50;99.90;;;;;;4824279;29;20042;-76
2024/04/01 08:23:26;;;;;;;36.47;7.10;;;16.80;99.90;;;;;;4824182;29;20038;-76
2024/04/01 08:25:52;;;;;;;33.60;6.78;;;17.20;99.90;;;;;;4842602;29;20131;-76
2024/04/01 08:28:18;;;;;;;38.05;7.05;;;19.20;99.90;;;;;;4847178;29;20159;-76
2024/04/01 08:30:44;;;;;;;28.65;6.30;;;17.60;84.90;;;;;;4850772;29;20053;-76
2024/04/01 08:33:09;;;;;;;32.10;6.70;;;17.60;99.90;;;;;;4855769;29;20512;-75
2024/04/01 08:35:35;;;;;;;33.78;6.85;;;17.50;99.90;;;;;;4865431;29;20048;-74
2024/04/01 08:38:02;;;;;;;34.53;7.57;;;17.60;99.90;;;;;;4879091;29;20040;-74
2024/04/01 08:40:32;;;;;;;36.53;7.38;;;17.50;99.90;;;;;;4865403;29;20045;-74
2024/04/01 08:43:05;;;;;;;42.10;7.25;;;17.20;99.90;;;;;;4875233;29;20037;-74
2024/04/01 08:45:32;;;;;;;31.70;6.40;;;19.40;99.90;;;;;;4841995;29;20089;-75
2024/04/01 08:48:07;;;;;;;37.15;7.68;;;21.50;1.00;;;;;;4841700;29;20069;-75
2024/04/01 08:50:35;;;;;;;;;;;24.50;99.90;;;;;;4859022;29;20471;-75
2024/04/01 08:53:16;;;;;;;35.88;10.07;;;26.20;46.20;;;;;;4860055;29;19915;-75
2024/04/01 08:55:43;;;;;;;35.50;9.70;;;28.10;1.00;;;;;;4841881;29;20166;-75
2024/04/01 08:58:09;;;;;;;39.40;8.63;;;26.90;1.00;;;;;;4841164;29;20045;-75
2024/04/01 09:00:35;;;;;;;43.72;8.18;;;24.30;1.00;;;;;;4860461;29;20132;-75
2024/04/01 09:03:00;;;;;;;39.22;8.02;;;25.30;1.00;;;;;;4897345;29;20115;-75
2024/04/01 09:05:26;;;;;;;35.15;8.50;;;24.80;1.00;;;;;;4898075;29;20117;-75
2024/04/01 09:07:52;;;;;;;46.33;8.82;;;25.30;1.00;;;;;;4897140;29;20074;-75
2024/04/01 09:10:23;;;;;;;41.78;8.70;;;27.10;99.90;;;;;;4897543;29;20032;-75
2024/04/01 09:12:53;;;;;;;41.20;9.00;;;29.10;99.90;;;;;;4897373;29;20044;-75
2024/04/01 09:15:21;;;;;;;47.95;10.63;;;31.50;99.90;;;;;;4841395;29;20067;-75
2024/04/01 09:17:46;;;;;;;35.22;7.97;;;32.90;99.90;;;;;;4841399;29;20108;-75
2024/04/01 09:20:12;;;;;;;40.90;8.98;;;30.30;99.90;;;;;;4841812;29;20113;-75
2024/04/01 09:22:37;;;;;;;35.40;8.60;;;29.50;99.90;;;;;;4860034;29;20064;-75
2024/04/01 09:25:03;;;;;;;42.45;8.90;;;27.10;99.90;;;;;;4853150;29;20033;-75
2024/04/01 09:27:29;;;;;;;40.20;8.40;;;26.50;99.90;;;;;;4871686;29;20517;-75
2024/04/01 09:29:54;;;;;;;43.08;9.32;;;27.50;99.90;;;;;;4859506;29;20050;-75
2024/04/01 09:32:20;;;;;;;42.15;8.48;;;26.70;99.90;;;;;;4859685;29;20502;-75
2024/04/01 09:34:45;;;;;;;50.40;9.18;;;27.50;99.90;;;;;;4859799;29;20038;-75
2024/04/01 09:37:11;;;;;;;37.85;8.38;;;26.90;99.90;;;;;;4889978;29;20453;-75
2024/04/01 09:39:40;;;;;;;45.08;8.85;;;25.80;99.90;;;;;;4863056;29;20044;-75
2024/04/01 09:42:09;;;;;;;38.08;8.52;;;26.00;99.90;;;;;;4860199;29;20144;-75
2024/04/01 09:44:35;;;;;;;40.05;8.63;;;25.90;99.90;;;;;;4859657;29;20037;-75
2024/04/01 09:47:01;;;;;;;41.60;8.88;;;27.20;99.90;;;;;;4878004;29;20405;-75
2024/04/01 09:49:28;;;;;;;40.42;8.23;;;28.10;99.90;;;;;;4859553;29;20041;-75
2024/04/01 09:51:54;;;;;;;40.92;8.82;;;26.70;99.90;;;;;;4859314;29;20042;-75
2024/04/01 09:54:20;;;;;;;48.42;9.23;;;27.70;99.90;;;;;;4859453;29;20466;-75
2024/04/01 09:57:06;;;;;;;45.72;9.13;;;27.60;99.90;;;;;;4874196;29;20096;-75
2024/04/01 10:00:00;;;;;;;50.25;9.35;;;27.10;99.90;;;;;;4877961;29;20045;-75
2024/04/01 10:02:31;;;;;;;43.13;9.90;;;27.90;99.90;;;;;;4896940;29;20051;-75
2024/04/01 10:05:17;;;;;;;43.92;8.82;;;27.30;99.90;;;;;;4897025;29;20036;-74
2024/04/01 10:08:17;;;;;;;36.70;7.78;;;27.10;99.90;;;;;;4878154;29;20058;-75
2024/04/01 10:11:20;;;;;;;41.83;10.20;;;26.90;99.90;;;;;;4896274;29;20068;-75
2024/04/01 10:14:00;;;;;;;40.28;8.07;;;27.80;99.90;;;;;;4896058;29;20041;-75
2024/04/01 10:16:41;;;;;;;41.83;8.40;;;27.90;99.90;;;;;;4896543;29;20041;-75
2024/04/01 10:19:32;;;;;;;39.60;8.85;;;29.70;99.90;;;;;;4896490;29;20049;-76
2024/04/01 10:22:25;;;;;;;42.15;9.00;;;29.10;99.90;;;;;;4892606;29;20047;-76
2024/04/01 10:24:56;;;;;;;35.50;8.13;;;29.60;99.90;;;;;;4877836;29;20047;-76
2024/04/01 10:27:39;;;;;;;44.63;8.75;;;29.80;99.90;;;;;;4883133;29;20040;-76
2024/04/01 10:30:33;;;;;;;40.17;8.98;;;29.10;99.90;;;;;;4901465;29;20053;-76
2024/04/01 10:33:19;;;;;;;38.05;9.15;;;28.70;99.90;;;;;;4915250;29;20032;-75
2024/04/01 10:36:28;;;;;;;41.05;8.02;;;27.40;99.90;;;;;;4915242;29;20045;-74
2024/04/01 10:39:31;;;;;;;50.50;9.35;;;28.00;99.90;;;;;;4838669;29;20046;-75
2024/04/01 10:42:33;;;;;;;46.38;7.88;;;26.20;99.90;;;;;;4843631;29;20118;-76
2024/04/01 10:45:24;;;;;;;44.30;8.63;;;25.40;99.90;;;;;;4858703;29;20119;-75
2024/04/01 10:48:13;;;;;;;51.50;16.45;;;25.30;99.90;;;;;;4877340;29;20052;-75
2024/04/01 10:51:03;;;;;;;45.28;9.38;;;24.60;99.90;;;;;;4845777;29;20546;-75
2024/04/01 10:53:57;;;;;;;45.35;8.48;;;24.40;99.90;;;;;;4858884;29;20100;-75
2024/04/01 10:56:43;;;;;;;38.17;8.18;;;24.90;99.90;;;;;;4859117;29;20065;-75
2024/04/01 10:59:42;;;;;;;43.58;8.10;;;24.80;99.90;;;;;;4877407;29;20050;-75
2024/04/01 11:02:39;;;;;;;47.25;8.57;;;24.70;99.90;;;;;;4892266;29;20035;-75
2024/04/01 11:05:39;;;;;;;38.80;7.57;;;23.80;99.90;;;;;;4846304;29;20132;-75
2024/04/01 11:08:19;;;;;;;46.40;8.50;;;23.30;99.90;;;;;;4877408;29;20496;-75
2024/04/01 11:11:10;;;;;;;39.55;8.00;;;24.00;99.90;;;;;;4862435;29;20046;-76
2024/04/01 11:13:37;;;;;;;43.85;8.57;;;24.60;99.90;;;;;;4840075;29;20045;-77
2024/04/01 11:16:04;;;;;;;48.72;8.18;;;25.10;99.90;;;;;;4840294;29;20514;-76
2024/04/01 11:18:45;;;;;;;40.08;9.02;;;25.50;99.90;;;;;;4828008;29;20042;-75
2024/04/01 11:21:28;;;;;;;44.35;8.63;;;26.50;99.90;;;;;;4882696;29;20069;-75
2024/04/01 11:24:09;;;;;;;41.22;8.23;;;26.60;99.90;;;;;;4908753;29;20083;-76
2024/04/01 11:26:49;;;;;;;40.90;7.95;;;25.60;99.90;;;;;;4937533;29;20047;-76
2024/04/01 11:29:15;;;;;;;47.22;8.25;;;26.40;99.90;;;;;;4937364;29;20064;-76
2024/04/01 11:31:57;;;;;;;40.13;7.75;;;26.30;99.90;;;;;;4936745;29;20104;-76
2024/04/01 11:35:00;;;;;;;42.75;7.70;;;27.50;99.90;;;;;;4917837;29;20342;-76
2024/04/01 11:37:48;;;;;;;46.75;8.00;;;25.10;99.90;;;;;;4918197;29;20492;-75
2024/04/01 11:40:19;;;;;;;35.80;7.88;;;25.20;99.90;;;;;;4862480;29;20084;-76
2024/04/01 11:42:55;;;;;;;40.30;7.70;;;26.10;99.90;;;;;;4861851;29;20049;-75
2024/04/01 11:45:27;;;;;;;46.05;9.10;;;26.70;99.90;;;;;;4839677;29;20055;-75
2024/04/01 11:47:53;;;;;;;42.72;8.23;;;26.60;99.90;;;;;;4843214;29;20050;-75
2024/04/01 11:50:19;;;;;;;37.75;7.38;;;25.60;99.90;;;;;;4861370;29;20049;-75
2024/04/01 11:53:01;;;;;;;43.03;8.93;;;24.90;99.90;;;;;;4874813;29;20132;-76
2024/04/01 11:55:28;;;;;;;39.97;8.02;;;25.30;99.90;;;;;;4921281;29;20118;-75
2024/04/01 11:57:54;;;;;;;37.78;7.63;;;25.30;99.90;;;;;;4936596;29;20036;-75
2024/04/01 12:00:19;;;;;;;49.30;9.20;;;24.60;99.90;;;;;;4936813;29;20046;-74
2024/04/01 12:02:53;;;;;;;61.50;17.30;;;24.70;99.90;;;;;;4917417;29;20036;-75
2024/04/01 12:05:19;;;;;;;47.20;9.95;;;25.80;99.90;;;;;;4898586;29;20036;-75
2024/04/01 12:07:45;;;;;;;42.08;8.85;;;27.00;99.90;;;;;;4898518;29;20055;-75
2024/04/01 12:10:16;;;;;;;50.80;10.23;;;25.80;99.90;;;;;;4862348;29;20038;-74
2024/04/01 12:12:45;;;;;;;37.80;8.18;;;26.90;99.90;;;;;;4879821;29;20112;-74
2024/04/01 12:15:18;;;;;;;47.85;8.00;;;26.10;99.90;;;;;;4879822;29;20555;-74
2024/04/01 12:17:45;;;;;;;49.22;9.38;;;26.20;99.90;;;;;;4879660;29;20037;-74
2024/04/01 12:20:11;;;;;;;48.22;8.10;;;26.00;99.90;;;;;;4879678;29;20043;-74
2024/04/01 12:22:37;;;;;;;41.63;8.80;;;26.50;99.90;;;;;;4861375;29;20069;-74
2024/04/01 12:25:04;;;;;;;45.45;9.07;;;25.40;99.90;;;;;;4879706;29;20037;-74
2024/04/01 12:27:34;;;;;;;54.65;17.00;;;26.40;99.90;;;;;;4879418;29;20382;-75
2024/04/01 12:30:05;;;;;;;48.90;10.18;;;25.00;99.90;;;;;;4841925;29;20046;-75
2024/04/01 12:32:41;;;;;;;47.75;8.90;;;25.00;99.90;;;;;;4823741;29;20083;-75
2024/04/01 12:35:14;;;;;;;45.72;8.90;;;24.70;99.90;;;;;;4842278;29;20044;-74
2024/04/01 12:37:42;;;;;;;43.42;8.43;;;25.10;99.90;;;;;;4842004;29;20038;-75
2024/04/01 12:40:08;;;;;;;46.88;7.72;;;25.00;99.90;;;;;;4841344;29;20526;-74
2024/04/01 12:42:38;;;;;;;48.67;7.90;;;24.80;99.90;;;;;;4849926;29;20038;-75
2024/04/01 12:45:05;;;;;;;48.28;9.63;;;25.90;99.90;;;;;;4861490;29;20042;-75
2024/04/01 12:47:31;;;;;;;51.35;8.27;;;25.30;99.90;;;;;;4879548;29;20105;-75